Latest Weather Observations for Cloncurry

IDQ60801

Issued at 11:35 pm EST Tuesday 2 September 2014 (issued every 30 minutes, with the page automatically refreshed every 10 minutes)

About weather observations | Map of weather stations | Latest weather observations for QLD | Other Formats
Station Details ID: 029141 Name: CLONCURRY AIRPORT Lat: -20.67 Lon: 140.50 Height: 186.0 m
Data from the previous 72 hours. | See also: Recent months at Cloncurry
Date/Time
EST
Temp
°C
App
Temp
°C
Dew
Point
Rel
Hum
%
Delta-T
°C
Wind Press
QNH
hPa
Press
MSL
hPa
Rain
since 9 am
mm
Dir
 
Spd
km/h
Gust
km/h
Spd
kts
Gust
kts
02/11:30pm 19.5 12.6 -2.8 22 9.3 S 24 32 13 17 1019.7 1018.8 0.0
02/11:00pm 20.3 13.4 -2.7 21 9.7 S 24 32 13 17 1019.6 1018.7 0.0
02/10:30pm 20.7 13.0 -3.0 20 10.0 S 28 33 15 18 1019.6 1018.7 0.0
02/10:00pm 21.2 14.3 -2.6 20 10.2 S 24 30 13 16 1019.6 1018.7 0.0
02/09:30pm 21.7 15.2 -2.2 20 10.4 S 22 30 12 16 1019.6 1018.7 0.0
02/09:00pm 22.0 16.8 -0.1 23 10.0 S 17 20 9 11 1019.3 1018.3 0.0
02/08:30pm 23.0 17.3 0.8 23 10.3 S 20 30 11 16 1019.0 1018.1 0.0
02/08:00pm 23.5 17.9 1.2 23 10.4 S 20 30 11 16 1018.5 1017.6 0.0
02/07:30pm 24.1 18.6 1.7 23 10.6 S 20 28 11 15 1018.1 1017.2 0.0
02/07:00pm 25.1 18.5 1.9 22 11.1 S 26 33 14 18 1017.6 1016.7 0.0
02/06:30pm 26.0 19.3 1.3 20 11.8 S 26 33 14 18 1017.1 1016.2 0.0
02/06:00pm 27.2 20.5 1.6 19 12.4 S 26 33 14 18 1016.9 1016.0 0.0
02/05:30pm 28.2 21.5 1.7 18 13.0 SSW 26 35 14 19 1016.8 1015.9 0.0
02/05:00pm 29.1 22.4 1.6 17 13.5 S 26 37 14 20 1016.4 1015.5 0.0
02/04:30pm 29.8 23.5 1.3 16 14.0 S 24 30 13 16 1016.2 1015.3 0.0
02/04:00pm 29.9 23.2 1.4 16 14.0 SSW 26 41 14 22 1016.3 1015.4 0.0
02/03:30pm 29.6 23.4 2.0 17 13.7 S 24 33 13 18 1016.3 1015.4 0.0
02/03:00pm 29.5 22.9 1.9 17 13.7 S 26 37 14 20 1016.7 1015.8 0.0
02/02:30pm 29.2 21.8 1.7 17 13.6 S 30 41 16 22 1017.1 1016.2 0.0
02/02:00pm 29.3 22.3 1.7 17 13.6 S 28 39 15 21 1017.5 1016.6 0.0
02/01:30pm 28.5 20.6 1.1 17 13.3 S 32 41 17 22 1017.9 1017.0 0.0
02/01:00pm 29.3 22.0 2.5 18 13.4 S 30 41 16 22 1018.0 1017.1 0.0
02/12:30pm 27.8 20.1 2.1 19 12.6 SSW 32 37 17 20 1018.4 1017.5 0.0
02/12:00pm 26.9 20.3 2.1 20 12.1 S 26 35 14 19 1019.0 1018.1 0.0
02/11:30am 27.7 20.8 2.7 20 12.4 S 28 39 15 21 1019.6 1018.7 0.0
02/11:00am 26.1 18.2 2.1 21 11.6 S 33 41 18 22 1019.8 1018.9 0.0
02/10:30am 25.1 17.4 2.5 23 11.0 S 32 41 17 22 1020.2 1019.3 0.0
02/10:06am 25.1 18.3 3.1 24 10.8 S 28 46 15 25 1020.4 1019.5 0.0
02/10:00am 24.2 16.5 2.4 24 10.5 S 32 46 17 25 1020.4 1019.5 0.0
02/09:30am 23.2 15.4 2.7 26 9.9 S 33 44 18 24 1020.4 1019.5 0.0
02/09:00am 22.3 15.8 2.4 27 9.4 S 26 32 14 17 1020.1 1019.2 0.0
02/08:30am 20.9 14.5 0.7 26 9.2 S 24 30 13 16 1019.8 1018.9 0.0
02/08:00am 19.5 13.7 -1.6 24 9.0 S 19 24 10 13 1019.4 1018.4 0.0
02/07:30am 18.1 11.4 -4.5 21 9.0 SSW 22 28 12 15 1018.8 1017.9 0.0
02/07:00am 14.6 10.1 -6.8 22 7.8 S 9 13 5 7 1018.5 1017.6 0.0
02/06:30am 16.4 10.5 -5.3 22 8.4 SSW 17 20 9 11 1017.9 1017.0 0.0
02/06:00am 14.3 6.2 -3.5 29 7.0 SSW 30 33 16 18 1017.2 1016.3 0.0
02/05:58am 12.5 4.2 -4.6 30 6.4 SSW 30 33 16 18 1017.2 1016.3 0.0
02/05:30am 12.1 8.6 -5.8 28 6.5 S 4 11 2 6 1016.2 1015.3 0.0
02/05:00am 13.0 10.3 -6.0 26 6.9 CALM 0 0 0 0 1015.9 1015.0 0.0
02/04:30am 14.5 10.2 -5.3 25 7.5 S 9 11 5 6 1016.0 1015.1 0.0
02/04:00am 14.0 9.7 -5.2 26 7.2 S 9 11 5 6 1016.1 1015.2 0.0
02/03:30am 14.0 9.7 -5.2 26 7.2 S 9 11 5 6 1016.1 1015.2 0.0
02/03:00am 13.7 8.9 -5.9 25 7.2 S 11 13 6 7 1016.3 1015.4 0.0
02/02:30am 15.6 11.3 -4.9 24 7.9 SSW 9 11 5 6 1016.5 1015.6 0.0
02/02:00am 14.7 10.0 -5.1 25 7.5 S 11 13 6 7 1016.7 1015.8 0.0
02/01:30am 16.7 12.5 -3.9 24 8.2 SSE 9 11 5 6 1016.8 1015.9 0.0
02/01:00am 16.2 12.0 -3.8 25 7.9 S 9 13 5 7 1016.7 1015.8 0.0
02/12:30am 16.9 13.0 -4.3 23 8.4 S 7 11 4 6 1016.8 1015.9 0.0
02/12:00am 17.8 13.7 -3.0 24 8.5 SSW 9 11 5 6 1016.7 1015.8 0.0
 
Date/Time
EST
Temp
°C
App
Temp
°C
Dew
Point
Rel
Hum
%
Delta-T
°C
Wind Press
QNH
hPa
Press
MSL
hPa
Rain
since 9 am
mm
Dir
 
Spd
km/h
Gust
km/h
Spd
kts
Gust
kts
01/11:30pm 16.8 12.0 -2.8 26 8.0 SSW 13 17 7 9 1016.7 1015.8 0.0
01/11:00pm 16.3 12.1 -3.7 25 8.0 SSW 9 9 5 5 1016.4 1015.5 0.0
01/10:30pm 17.3 14.5 -2.9 25 8.3 SSE 2 9 1 5 1016.5 1015.6 0.0
01/10:00pm 17.5 15.2 -2.7 25 8.3 CALM 0 0 0 0 1016.4 1015.5 0.0
01/09:30pm 18.5 16.0 -3.6 22 9.0 CALM 0 0 0 0 1016.1 1015.2 0.0
01/09:00pm 19.9 15.9 -5.8 17 10.2 SE 7 9 4 5 1015.7 1014.8 0.0
01/08:30pm 20.9 17.2 -5.0 17 10.5 SE 6 7 3 4 1015.2 1014.3 0.0
01/08:00pm 22.4 18.4 -5.5 15 11.4 SE 7 7 4 4 1015.0 1014.1 0.0
01/07:30pm 24.9 21.2 -4.4 14 12.5 SE 6 7 3 4 1014.6 1013.6 0.0
01/07:00pm 27.5 23.6 -4.4 12 13.9 E 7 7 4 4 1014.3 1013.3 0.0
01/06:30pm 29.0 25.5 -3.2 12 14.6 SSW 6 7 3 4 1014.1 1013.1 0.0
01/06:00pm 30.5 26.9 -3.3 11 15.4 SSE 6 7 3 4 1013.9 1012.9 0.0
01/05:30pm 30.7 26.6 -3.1 11 15.5 SSE 9 13 5 7 1013.9 1012.9 0.0
01/05:00pm 31.4 27.4 -2.6 11 15.8 S 9 17 5 9 1013.8 1012.8 0.0
01/04:30pm 31.5 27.8 -2.5 11 15.9 SSW 7 13 4 7 1013.7 1012.7 0.0
01/04:00pm 31.0 26.2 -2.9 11 15.6 SSW 13 22 7 12 1013.9 1012.9 0.0
01/03:30pm 31.0 27.5 -2.9 11 15.6 E 6 13 3 7 1014.1 1013.1 0.0
01/03:00pm 30.8 26.3 -3.0 11 15.5 S 11 17 6 9 1014.3 1013.3 0.0
01/02:30pm 30.4 25.9 -3.3 11 15.4 E 11 17 6 9 1014.6 1013.6 0.0
01/02:00pm 30.7 26.7 -1.9 12 15.3 NNE 9 13 5 7 1015.2 1014.3 0.0
01/01:30pm 29.9 26.2 -2.6 12 14.9 N 7 11 4 6 1015.4 1014.5 0.0
01/01:00pm 29.1 25.0 -3.2 12 14.6 ENE 9 19 5 10 1015.9 1015.0 0.0
01/12:30pm 29.1 24.6 -3.2 12 14.6 ESE 11 17 6 9 1016.6 1015.7 0.0
01/12:00pm 28.6 24.2 -2.5 13 14.2 N 11 15 6 8 1017.2 1016.3 0.0
01/11:30am 28.5 23.4 -1.6 14 13.9 E 15 22 8 12 1017.7 1016.8 0.0
01/11:00am 27.9 23.0 -0.2 16 13.3 ENE 15 22 8 12 1018.0 1017.1 0.0
01/10:30am 26.5 21.3 0.3 18 12.4 NNE 17 26 9 14 1018.3 1017.4 0.0
01/10:00am 25.6 20.8 0.3 19 11.8 NE 15 20 8 11 1018.3 1017.4 0.0
01/09:30am 24.8 19.1 -1.1 18 11.8 ENE 19 24 10 13 1018.2 1017.7 0.0
01/09:00am 24.1 19.5 -0.9 19 11.3 E 13 20 7 11 1018.4 1017.9 0.0
01/08:30am 19.9 16.5 -1.8 23 9.3 SSW 6 7 3 4 1018.1 1017.6 0.0
01/08:00am 16.9 13.4 -1.7 28 7.8 SSW 7 9 4 5 1017.9 1017.4 0.0
01/07:30am 12.7 8.5 -3.5 32 6.2 S 9 9 5 5 1017.6 1017.0 0.0
01/07:00am 11.7 8.1 -3.6 34 5.8 S 6 7 3 4 1017.3 1016.7 0.0
01/06:30am 11.5 7.8 -3.0 36 5.6 S 7 9 4 5 1016.9 1016.3 0.0
01/06:00am 11.0 7.4 -2.1 40 5.1 S 7 9 4 5 1016.3 1015.7 0.0
01/05:30am 11.9 8.1 -3.8 33 6.0 S 7 9 4 5 1015.6 1015.0 0.0
01/05:00am 12.6 9.1 -2.8 34 6.0 S 6 7 3 4 1015.6 1015.0 0.0
01/04:30am 13.6 9.5 -2.8 32 6.5 S 9 9 5 5 1015.2 1014.6 0.0
01/04:00am 13.8 9.8 -2.6 32 6.5 S 9 11 5 6 1015.0 1014.4 0.0
01/03:30am 14.4 10.7 -2.5 31 6.8 S 7 9 4 5 1014.9 1014.3 0.0
01/03:00am 13.8 9.2 -3.9 29 6.8 S 11 11 6 6 1015.1 1014.5 0.0
01/02:30am 14.5 10.0 -3.3 29 7.0 S 11 13 6 7 1015.0 1014.4 0.0
01/02:00am 15.2 10.4 -2.7 29 7.2 S 13 15 7 8 1015.2 1014.6 0.0
01/01:30am 15.2 10.3 -3.2 28 7.3 SSW 13 13 7 7 1015.4 1014.8 0.0
01/01:00am 16.3 11.5 -2.7 27 7.7 SSW 13 13 7 7 1015.4 1014.8 0.0
01/12:30am 17.1 12.4 -2.0 27 8.0 S 13 15 7 8 1015.6 1015.0 0.0
01/12:00am 17.8 12.0 -1.4 27 8.2 S 19 24 10 13 1015.5 1014.9 0.0
 
Date/Time
EST
Temp
°C
App
Temp
°C
Dew
Point
Rel
Hum
%
Delta-T
°C
Wind Press
QNH
hPa
Press
MSL
hPa
Rain
since 9 am
mm
Dir
 
Spd
km/h
Gust
km/h
Spd
kts
Gust
kts
31/11:30pm 16.5 12.8 -3.0 26 7.9 SSE 7 9 4 5 1015.5 1014.9 0.0
31/11:00pm 17.0 12.9 -3.1 25 8.2 SE 9 11 5 6 1015.7 1015.1 0.0
31/10:30pm 17.5 14.1 -1.7 27 8.1 ESE 6 9 3 5 1015.6 1015.0 0.0
31/10:00pm 19.4 15.8 -2.2 23 9.2 E 7 9 4 5 1015.6 1015.0 0.0
31/09:30pm 20.6 16.8 -3.8 19 10.1 E 7 9 4 5 1015.6 1015.0 0.0
31/09:00pm 22.2 18.2 -2.5 19 10.7 E 9 11 5 6 1015.5 1014.9 0.0
31/08:30pm 22.5 18.4 -3.0 18 11.0 ESE 9 11 5 6 1015.2 1014.6 0.0
31/08:00pm 23.5 19.3 -3.7 16 11.6 ESE 9 13 5 7 1014.9 1014.3 0.0
31/07:30pm 24.7 20.6 -2.8 16 12.1 ESE 9 11 5 6 1014.6 1014.0 0.0
31/07:00pm 26.6 22.1 -3.1 14 13.2 SE 11 13 6 7 1014.3 1013.7 0.0
31/06:30pm 27.4 23.4 -2.4 14 13.5 SE 9 13 5 7 1014.1 1013.5 0.0
31/06:00pm 28.3 23.6 -1.7 14 13.8 ESE 13 20 7 11 1013.9 1013.3 0.0
31/05:30pm 29.0 25.1 -1.2 14 14.1 E 9 20 5 11 1013.7 1013.1 0.0
31/05:00pm 29.3 24.6 -1.9 13 14.5 ESE 13 20 7 11 1013.7 1013.1 0.0
31/04:30pm 29.2 24.2 -1.0 14 14.2 ESE 15 28 8 15 1013.6 1013.0 0.0
31/04:00pm 29.2 24.2 -1.0 14 14.2 SE 15 22 8 12 1013.8 1013.2 0.0
31/03:30pm 29.8 25.9 -1.5 13 14.7 SSE 9 20 5 11 1013.9 1013.3 0.0
31/03:00pm 28.9 23.1 -1.2 14 14.1 SSE 19 26 10 14 1014.2 1013.6 0.0
31/02:30pm 30.0 24.3 -0.4 14 14.5 E 19 28 10 15 1014.4 1013.8 0.0
31/02:00pm 28.5 24.7 -0.6 15 13.7 ENE 9 13 5 7 1014.8 1014.2 0.0
31/01:30pm 28.2 23.6 -0.9 15 13.6 SSE 13 20 7 11 1015.5 1014.9 0.0
31/01:00pm 28.4 23.5 -0.7 15 13.7 E 15 26 8 14 1016.0 1015.4 0.0
31/12:30pm 27.6 23.5 -0.5 16 13.2 E 11 20 6 11 1016.4 1015.8 0.0
31/12:00pm 27.7 23.3 0.5 17 13.0 SE 13 22 7 12 1016.9 1016.3 0.0
31/11:30am 27.5 21.8 0.3 17 12.9 E 20 32 11 17 1017.3 1016.7 0.0
31/11:00am 27.1 20.9 0.0 17 12.8 E 22 35 12 19 1017.5 1016.9 0.0
31/10:30am 26.5 20.4 0.3 18 12.4 ESE 22 26 12 14 1017.8 1017.2 0.0
31/10:00am 25.8 19.3 0.5 19 11.9 ESE 24 32 13 17 1017.8 1017.2 0.0
31/09:30am 24.6 19.9 0.8 21 11.2 ESE 15 26 8 14 1018.0 1017.5 0.0
31/09:00am 23.4 17.9 0.5 22 10.6 ESE 19 24 10 13 1018.1 1017.6 0.0
31/08:30am 20.0 15.5 -0.6 25 9.1 S 13 17 7 9 1018.1 1017.6 0.0
31/08:00am 17.6 14.0 0.3 31 7.6 S 9 11 5 6 1017.9 1017.4 0.0
31/07:30am 13.9 9.4 -0.5 37 6.0 S 13 15 7 8 1017.6 1017.0 0.0
31/07:00am 12.1 7.9 -1.1 40 5.3 S 11 13 6 7 1017.3 1016.7 0.0
31/06:30am 12.1 9.4 -2.1 37 5.6 S 2 6 1 3 1017.0 1016.4 0.0
31/06:00am 12.3 10.0 -2.3 36 5.8 CALM 0 6 0 3 1016.9 1016.3 0.0
31/05:30am 13.9 10.0 -1.7 34 6.3 S 9 11 5 6 1016.7 1016.1 0.0
31/05:00am 14.6 10.8 -1.1 34 6.5 S 9 11 5 6 1016.2 1015.6 0.0
31/04:30am 14.7 10.1 -1.0 34 6.5 S 13 15 7 8 1016.1 1015.5 0.0
31/04:00am 15.2 10.9 -1.4 32 6.9 S 11 11 6 6 1015.9 1015.3 0.0
31/03:30am 16.1 12.3 -1.0 31 7.2 S 9 13 5 7 1015.9 1015.3 0.0
31/03:00am 17.8 13.0 0.5 31 7.6 SSE 15 26 8 14 1015.8 1015.2 0.0
31/02:30am 16.4 11.9 -0.3 32 7.2 S 13 17 7 9 1016.0 1015.4 0.0
31/02:00am 16.3 11.8 -0.4 32 7.1 S 13 15 7 8 1016.1 1015.5 0.0
31/01:30am 16.7 13.4 -0.1 32 7.3 S 7 9 4 5 1016.2 1015.6 0.0
31/01:00am 16.4 12.7 0.1 33 7.0 SSW 9 13 5 7 1016.5 1015.9 0.0
31/12:30am 17.0 12.2 0.2 32 7.3 S 15 17 8 9 1016.7 1016.1 0.0
31/12:00am 16.4 12.3 -0.3 32 7.2 S 11 13 6 7 1016.8 1016.2 0.0

Other Formats:

Comma delimited format used in spreadsheet applications
http://www.bom.gov.au/fwo/IDQ60801/IDQ60801.94335.axf

JavaScript Object Notation format (JSON) in row-major order
http://www.bom.gov.au/fwo/IDQ60801/IDQ60801.94335.json